Terminal Aerodrome Forecast
Issued by NWS

Home | Current Version | Previous Version | Text Only | Print | Product List | Glossary Off
Versions: 1 2 3 4 5 6 7 8 9 10 11 12 13 14 15 16 17

000
FTUS43 KMPX 252000 AAA
TAFRWF
TAF AMD
KRWF 252008Z 2520/2618 23010KT P6SM SCT025 BKN050
      TEMPO 2520/2522 BKN025
     FM252300 32005KT P6SM FEW050
     FM261400 12005KT P6SM SCT100 SCT250=

USA.gov is the U.S. government's official web portal to all federal, state and local government web resources and services.